createdAt,value
2023-05-31T00:00:12.732Z,93.44
2023-05-31T00:01:35.805Z,93.20
2023-05-31T00:02:57.687Z,92.34
2023-05-31T00:04:20.578Z,91.29
2023-05-31T00:05:43.578Z,91.49
2023-05-31T00:07:07.506Z,90.53
2023-05-31T00:08:29.387Z,90.45
2023-05-31T00:09:52.231Z,90.49
2023-05-31T00:11:15.176Z,91.64
2023-05-31T00:12:37.044Z,92.50
2023-05-31T00:13:59.923Z,93.00
2023-05-31T00:15:23.159Z,92.94
2023-05-31T00:17:07.048Z,92.79
2023-05-31T00:18:28.848Z,93.15
2023-05-31T00:19:51.351Z,91.85
2023-05-31T00:21:14.434Z,89.94
2023-05-31T00:22:37.258Z,89.29
2023-05-31T00:24:00.163Z,88.06
2023-05-31T00:25:23.321Z,86.08
2023-05-31T00:26:45.286Z,86.90
2023-05-31T00:28:08.185Z,86.28
2023-05-31T00:29:30.317Z,86.88
2023-05-31T00:30:54.508Z,87.20
2023-05-31T00:32:16.472Z,88.18
2023-05-31T00:33:39.552Z,86.79
2023-05-31T00:35:01.795Z,87.44
2023-05-31T00:36:24.665Z,86.63
2023-05-31T00:37:47.498Z,85.29
2023-05-31T00:39:11.236Z,85.02
2023-05-31T00:40:34.254Z,85.63
2023-05-31T00:41:57.417Z,86.12
2023-05-31T00:43:19.315Z,87.20
2023-05-31T00:44:42.205Z,88.15
2023-05-31T00:46:05.764Z,88.05
2023-05-31T00:47:29.623Z,87.71
2023-05-31T00:48:53.595Z,87.99
2023-05-31T00:50:16.588Z,88.86
2023-05-31T00:51:38.591Z,89.25
2023-05-31T00:53:02.900Z,89.22
2023-05-31T00:54:26.112Z,90.79
2023-05-31T00:55:48.435Z,89.68
2023-05-31T00:57:11.985Z,90.29
2023-05-31T00:58:37.408Z,92.21
2023-05-31T01:00:00.653Z,92.73
2023-05-31T01:01:27.453Z,93.33
2023-05-31T01:02:51.917Z,93.80
2023-05-31T01:04:15.113Z,93.88
2023-05-31T01:05:38.023Z,93.40
2023-05-31T01:07:01.777Z,93.61
2023-05-31T01:08:24.738Z,92.83
2023-05-31T01:09:47.738Z,91.70
2023-05-31T01:11:15.848Z,90.26
2023-05-31T01:12:46.977Z,90.07
2023-05-31T01:14:15.763Z,91.39
2023-05-31T01:15:46.049Z,92.55
2023-05-31T01:17:21.652Z,93.62
2023-05-31T01:18:48.102Z,93.90
2023-05-31T01:20:11.572Z,94.21
2023-05-31T01:21:46.078Z,94.32
2023-05-31T01:23:28.557Z,94.89
2023-05-31T01:25:06.322Z,97.45
2023-05-31T01:26:39.010Z,96.39
2023-05-31T01:28:01.616Z,94.02
2023-05-31T01:29:28.313Z,92.10
2023-05-31T01:30:51.445Z,90.26
2023-05-31T01:32:15.947Z,90.49
2023-05-31T01:33:39.930Z,90.31
2023-05-31T01:35:02.788Z,90.47
2023-05-31T01:36:25.621Z,91.87
2023-05-31T01:37:48.520Z,91.53
2023-05-31T01:39:12.285Z,90.10
2023-05-31T01:40:36.387Z,89.95
2023-05-31T01:42:02.142Z,91.23
2023-05-31T01:43:26.231Z,92.90
2023-05-31T01:44:50.562Z,93.75
2023-05-31T01:46:16.368Z,93.66
2023-05-31T01:47:42.427Z,93.00
2023-05-31T01:49:05.547Z,93.82
2023-05-31T01:50:28.994Z,94.11
2023-05-31T01:51:52.560Z,93.14
2023-05-31T01:53:15.510Z,94.93
2023-05-31T01:54:38.426Z,95.13
2023-05-31T01:56:02.141Z,93.07
2023-05-31T01:57:27.524Z,91.02
2023-05-31T01:58:51.598Z,90.63
2023-05-31T02:00:16.011Z,89.60
2023-05-31T02:01:39.742Z,90.78
2023-05-31T02:03:03.000Z,93.50
2023-05-31T02:04:25.872Z,94.29
2023-05-31T02:05:58.339Z,93.39
2023-05-31T02:07:22.290Z,91.56
2023-05-31T02:08:45.294Z,90.00
2023-05-31T02:10:08.471Z,89.81
2023-05-31T02:11:31.466Z,89.76
2023-05-31T02:12:56.084Z,90.36
2023-05-31T02:14:18.896Z,92.78
2023-05-31T02:15:42.553Z,92.38
2023-05-31T02:17:05.875Z,92.71
2023-05-31T02:18:28.997Z,93.03
2023-05-31T02:19:52.667Z,92.71
2023-05-31T02:21:15.697Z,90.95
2023-05-31T02:22:37.723Z,90.10
2023-05-31T02:24:00.569Z,89.77
2023-05-31T02:25:22.448Z,89.24
2023-05-31T02:26:45.524Z,89.14
2023-05-31T02:28:09.836Z,89.61
2023-05-31T02:29:32.631Z,88.83
2023-05-31T02:30:55.755Z,89.41
2023-05-31T02:32:18.651Z,89.44
2023-05-31T02:33:42.487Z,88.51
2023-05-31T02:35:05.509Z,88.78
2023-05-31T02:36:31.119Z,89.66
2023-05-31T02:37:53.033Z,90.67
2023-05-31T02:39:16.055Z,91.58
2023-05-31T02:40:37.957Z,92.86
2023-05-31T02:42:00.809Z,94.47
2023-05-31T02:43:24.069Z,96.07
2023-05-31T02:44:46.913Z,96.72
2023-05-31T02:46:08.810Z,98.49
2023-05-31T02:47:31.706Z,100.00
2023-05-31T02:48:54.551Z,98.81
2023-05-31T02:50:16.473Z,96.37
2023-05-31T02:51:39.271Z,95.72
2023-05-31T02:53:01.668Z,95.24
2023-05-31T02:54:24.496Z,96.06
2023-05-31T02:55:46.406Z,95.92
2023-05-31T02:57:09.234Z,97.64
2023-05-31T02:58:33.360Z,97.47
2023-05-31T03:00:00.455Z,95.17
2023-05-31T03:01:22.381Z,94.56
2023-05-31T03:02:45.456Z,94.13
2023-05-31T03:04:07.432Z,92.88
2023-05-31T03:05:31.011Z,92.50
2023-05-31T03:06:54.070Z,92.81
2023-05-31T03:08:16.952Z,93.26
2023-05-31T03:09:38.810Z,93.15
2023-05-31T03:11:01.782Z,91.23
2023-05-31T03:12:24.812Z,90.27
2023-05-31T03:13:48.000Z,91.01
2023-05-31T03:15:11.065Z,92.24
2023-05-31T03:16:33.011Z,90.82
2023-05-31T03:17:56.680Z,94.46
2023-05-31T03:19:19.830Z,93.39
2023-05-31T03:20:42.833Z,93.24
2023-05-31T03:22:05.635Z,96.07
2023-05-31T03:23:28.458Z,96.89
2023-05-31T03:24:50.501Z,97.14
2023-05-31T03:26:13.295Z,99.47
2023-05-31T03:27:35.265Z,100.00
2023-05-31T03:28:59.451Z,97.69
2023-05-31T03:30:22.244Z,95.51
2023-05-31T03:31:44.144Z,94.32
2023-05-31T03:33:07.046Z,96.02
2023-05-31T03:34:29.153Z,98.01
2023-05-31T03:35:52.011Z,96.97
2023-05-31T03:37:15.090Z,96.08
2023-05-31T03:38:37.900Z,97.13
2023-05-31T03:40:00.721Z,97.97
2023-05-31T03:41:22.607Z,98.38
2023-05-31T03:42:45.396Z,98.62
2023-05-31T03:44:09.724Z,97.58
2023-05-31T03:45:32.546Z,97.96
2023-05-31T03:46:55.432Z,98.49
2023-05-31T03:48:18.257Z,99.35
2023-05-31T03:49:41.448Z,97.76
2023-05-31T03:51:04.409Z,96.77
2023-05-31T03:52:27.350Z,98.01
2023-05-31T03:53:50.207Z,98.46
2023-05-31T03:55:13.083Z,97.39
2023-05-31T03:56:35.080Z,96.57
2023-05-31T03:57:57.920Z,96.32
2023-05-31T03:59:22.279Z,97.32
2023-05-31T04:00:45.184Z,98.65
2023-05-31T04:02:08.021Z,100.00
2023-05-31T04:03:30.997Z,100.00
2023-05-31T04:04:53.998Z,100.00
2023-05-31T04:06:16.508Z,100.00
2023-05-31T04:07:39.327Z,100.00
2023-05-31T04:09:02.208Z,98.48
2023-05-31T04:10:25.044Z,95.84
2023-05-31T04:11:48.160Z,93.84
2023-05-31T04:13:11.098Z,93.55
2023-05-31T04:14:34.342Z,93.00
2023-05-31T04:15:57.479Z,93.63
2023-05-31T04:17:20.344Z,94.15
2023-05-31T04:18:42.169Z,93.72
2023-05-31T04:20:08.607Z,94.66
2023-05-31T04:21:33.764Z,95.19
2023-05-31T04:22:56.681Z,95.39
2023-05-31T04:24:19.549Z,95.88
2023-05-31T04:25:42.385Z,95.62
2023-05-31T04:27:04.586Z,93.38
2023-05-31T04:28:30.576Z,90.81
2023-05-31T04:29:55.150Z,88.82
2023-05-31T04:31:18.653Z,88.11
2023-05-31T04:32:40.811Z,87.13
2023-05-31T04:34:05.408Z,86.29
2023-05-31T04:35:29.822Z,87.37
2023-05-31T04:36:53.297Z,87.31
2023-05-31T04:38:17.358Z,88.09
2023-05-31T04:39:40.319Z,86.83
2023-05-31T04:41:02.362Z,85.56
2023-05-31T04:42:25.492Z,84.89
2023-05-31T04:43:48.842Z,86.03
2023-05-31T04:45:13.152Z,84.92
2023-05-31T04:46:37.457Z,83.81
2023-05-31T04:48:00.951Z,83.62
2023-05-31T04:49:25.358Z,84.66
2023-05-31T04:50:49.314Z,84.39
2023-05-31T04:52:12.500Z,84.17
2023-05-31T04:53:34.384Z,82.39
2023-05-31T04:54:57.981Z,81.31
2023-05-31T04:56:22.814Z,82.39
2023-05-31T04:57:45.620Z,81.25
2023-05-31T04:59:08.747Z,80.36
2023-05-31T05:00:33.263Z,79.77
2023-05-31T05:01:56.316Z,79.51
2023-05-31T05:03:19.447Z,78.98
2023-05-31T05:04:42.629Z,78.21
2023-05-31T05:06:14.648Z,78.53
2023-05-31T05:07:37.732Z,78.67
2023-05-31T05:09:00.717Z,79.04
2023-05-31T05:10:23.594Z,78.76
2023-05-31T05:11:46.488Z,77.38
2023-05-31T05:13:08.421Z,77.17
2023-05-31T05:14:31.355Z,78.51
2023-05-31T05:15:55.529Z,78.70
2023-05-31T05:17:18.392Z,78.36
2023-05-31T05:18:41.909Z,78.31
2023-05-31T05:20:06.321Z,78.23
2023-05-31T05:21:29.965Z,77.30
2023-05-31T05:22:53.860Z,77.10
2023-05-31T05:24:17.430Z,77.32
2023-05-31T05:25:41.042Z,76.69
2023-05-31T05:27:04.894Z,77.20
2023-05-31T05:28:27.810Z,77.50
2023-05-31T05:29:50.604Z,76.99
2023-05-31T05:31:14.766Z,76.82
2023-05-31T05:32:37.613Z,76.79
2023-05-31T05:34:00.498Z,75.20
2023-05-31T05:35:23.347Z,77.36
2023-05-31T05:36:46.584Z,77.66
2023-05-31T05:38:09.451Z,77.48
2023-05-31T05:39:32.265Z,77.16
2023-05-31T05:40:55.418Z,76.78
2023-05-31T05:42:18.271Z,77.62
2023-05-31T05:43:41.350Z,77.32
2023-05-31T05:45:06.632Z,76.90
2023-05-31T05:46:30.924Z,75.49
2023-05-31T05:47:56.773Z,75.19
2023-05-31T05:49:20.210Z,74.11
2023-05-31T05:50:43.084Z,73.71
2023-05-31T05:52:06.447Z,73.63
2023-05-31T05:53:29.381Z,73.40
2023-05-31T05:54:51.242Z,73.17
2023-05-31T05:56:18.940Z,74.23
2023-05-31T05:57:42.082Z,75.00
2023-05-31T05:59:04.988Z,75.64
2023-05-31T06:00:27.811Z,75.64
2023-05-31T06:01:52.449Z,74.11
2023-05-31T06:03:16.159Z,73.35
2023-05-31T06:04:39.807Z,73.15
2023-05-31T06:06:02.666Z,73.18
2023-05-31T06:07:25.528Z,72.10
2023-05-31T06:08:47.850Z,71.89
2023-05-31T06:10:11.531Z,71.66
2023-05-31T06:11:34.422Z,71.39
2023-05-31T06:12:58.161Z,71.50
2023-05-31T06:14:21.013Z,71.76
2023-05-31T06:15:43.857Z,71.06
2023-05-31T06:17:08.690Z,70.96
2023-05-31T06:18:31.503Z,71.77
2023-05-31T06:19:54.731Z,70.91
2023-05-31T06:21:18.059Z,71.27
2023-05-31T06:22:40.937Z,70.30
2023-05-31T06:24:03.978Z,69.97
2023-05-31T06:25:27.254Z,70.30
2023-05-31T06:26:50.151Z,70.89
2023-05-31T06:28:13.512Z,70.75
2023-05-31T06:29:36.938Z,69.38
2023-05-31T06:31:01.973Z,69.51
2023-05-31T06:32:27.094Z,69.61
2023-05-31T06:33:50.610Z,69.32
2023-05-31T06:35:13.652Z,69.14
2023-05-31T06:36:36.555Z,71.40
2023-05-31T06:37:59.432Z,71.92
2023-05-31T06:39:22.300Z,71.66
2023-05-31T06:40:45.937Z,70.74
2023-05-31T06:42:09.674Z,70.16
2023-05-31T06:43:32.459Z,68.66
2023-05-31T06:44:57.317Z,68.42
2023-05-31T06:46:20.640Z,68.17
2023-05-31T06:47:43.885Z,67.79
2023-05-31T06:49:12.384Z,68.14
2023-05-31T06:50:35.952Z,68.35
2023-05-31T06:51:59.519Z,67.39
2023-05-31T06:53:22.372Z,67.17
2023-05-31T06:54:45.729Z,67.23
2023-05-31T06:56:08.570Z,67.44
2023-05-31T06:57:32.580Z,67.59
2023-05-31T06:58:55.396Z,68.81
2023-05-31T07:00:19.833Z,68.17
2023-05-31T07:01:42.729Z,67.76
2023-05-31T07:03:08.017Z,67.24
2023-05-31T07:04:29.896Z,66.98
2023-05-31T07:05:52.766Z,66.75
2023-05-31T07:07:15.831Z,67.32
2023-05-31T07:08:38.698Z,68.08
2023-05-31T07:10:02.025Z,68.41
2023-05-31T07:11:24.910Z,67.76
2023-05-31T07:12:47.880Z,68.31
2023-05-31T07:14:11.212Z,68.87
2023-05-31T07:15:34.183Z,68.06
2023-05-31T07:16:57.011Z,67.91
2023-05-31T07:18:21.272Z,67.87
2023-05-31T07:19:47.878Z,68.04
2023-05-31T07:21:12.225Z,66.96
2023-05-31T07:22:35.400Z,66.63
2023-05-31T07:23:58.438Z,66.33
2023-05-31T07:25:21.492Z,66.99
2023-05-31T07:26:44.368Z,67.33
2023-05-31T07:28:07.246Z,66.55
2023-05-31T07:29:30.049Z,66.63
2023-05-31T07:30:51.930Z,65.82
2023-05-31T07:32:14.810Z,66.71
2023-05-31T07:33:39.061Z,67.05
2023-05-31T07:35:04.128Z,66.32
2023-05-31T07:36:28.307Z,66.38
2023-05-31T07:37:51.183Z,66.00
2023-05-31T07:39:14.122Z,65.85
2023-05-31T07:40:37.130Z,66.24
2023-05-31T07:42:01.730Z,66.58
2023-05-31T07:43:25.429Z,65.19
2023-05-31T07:44:49.762Z,63.40
2023-05-31T07:46:12.591Z,62.96
2023-05-31T07:47:37.052Z,65.44
2023-05-31T07:49:01.262Z,63.91
2023-05-31T07:50:24.153Z,62.79
2023-05-31T07:51:47.164Z,63.50
2023-05-31T07:53:10.146Z,62.89
2023-05-31T07:54:32.956Z,61.71
2023-05-31T07:55:55.982Z,61.29
2023-05-31T07:57:19.780Z,61.05
2023-05-31T07:58:42.615Z,61.66
2023-05-31T08:00:06.786Z,61.50
2023-05-31T08:01:29.658Z,61.16
2023-05-31T08:02:52.548Z,61.75
2023-05-31T08:04:16.863Z,62.39
2023-05-31T08:05:40.146Z,61.07
2023-05-31T08:07:03.096Z,60.29
2023-05-31T08:08:26.381Z,60.56
2023-05-31T08:09:49.618Z,60.46
2023-05-31T08:11:12.890Z,60.32
2023-05-31T08:12:35.859Z,59.74
2023-05-31T08:13:58.765Z,60.66
2023-05-31T08:15:21.876Z,61.22
2023-05-31T08:16:44.800Z,60.91
2023-05-31T08:18:07.793Z,60.46
2023-05-31T08:19:32.415Z,61.83
2023-05-31T08:20:55.890Z,61.10
2023-05-31T08:22:18.932Z,60.17
2023-05-31T08:23:41.815Z,61.17
2023-05-31T08:25:05.028Z,60.55
2023-05-31T08:26:27.981Z,60.47
2023-05-31T08:27:51.469Z,60.57
2023-05-31T08:29:14.608Z,59.62
2023-05-31T08:30:37.492Z,59.47
2023-05-31T08:32:00.426Z,59.33
2023-05-31T08:33:23.302Z,60.25
2023-05-31T08:34:47.483Z,60.62
2023-05-31T08:36:10.675Z,60.57
2023-05-31T08:37:33.492Z,59.83
2023-05-31T08:38:56.355Z,59.71
2023-05-31T08:40:19.432Z,59.90
2023-05-31T08:41:50.369Z,60.59
2023-05-31T08:43:17.665Z,60.46
2023-05-31T08:44:40.952Z,60.81
2023-05-31T08:46:06.805Z,59.71
2023-05-31T08:47:38.190Z,59.64
2023-05-31T08:49:04.564Z,60.16
2023-05-31T08:50:32.588Z,58.46
2023-05-31T08:51:56.970Z,59.16
2023-05-31T08:53:21.665Z,60.28
2023-05-31T08:54:46.660Z,58.76
2023-05-31T08:56:10.536Z,58.75
2023-05-31T08:57:35.179Z,59.03
2023-05-31T08:58:59.009Z,58.90
2023-05-31T09:00:22.708Z,57.75
2023-05-31T09:01:46.289Z,57.26
2023-05-31T09:03:11.043Z,57.83
2023-05-31T09:04:34.333Z,57.03
2023-05-31T09:05:58.558Z,56.85
2023-05-31T09:07:21.420Z,56.54
2023-05-31T09:08:44.366Z,56.88
2023-05-31T09:10:10.099Z,56.79
2023-05-31T09:11:33.152Z,55.99
2023-05-31T09:12:56.301Z,55.59
2023-05-31T09:14:19.209Z,56.99
2023-05-31T09:15:43.927Z,57.70
2023-05-31T09:17:06.840Z,58.45
2023-05-31T09:18:32.600Z,57.12
2023-05-31T09:19:56.874Z,56.74
2023-05-31T09:21:21.130Z,55.98
2023-05-31T09:22:44.373Z,55.73
2023-05-31T09:24:07.491Z,55.17
2023-05-31T09:25:31.481Z,54.65
2023-05-31T09:26:56.162Z,55.26
2023-05-31T09:28:20.419Z,55.14
2023-05-31T09:29:44.567Z,54.85
2023-05-31T09:31:08.962Z,55.05
2023-05-31T09:32:31.831Z,54.75
2023-05-31T09:33:55.702Z,55.93
2023-05-31T09:35:21.296Z,55.48
2023-05-31T09:36:45.534Z,54.32
2023-05-31T09:38:09.224Z,53.45
2023-05-31T09:39:32.687Z,54.36
2023-05-31T09:40:54.623Z,53.71
2023-05-31T09:42:17.727Z,53.65
2023-05-31T09:43:41.423Z,54.53
2023-05-31T09:45:05.616Z,55.54
2023-05-31T09:46:29.127Z,54.60
2023-05-31T09:47:52.644Z,54.07
2023-05-31T09:49:15.691Z,53.29
2023-05-31T09:50:41.187Z,52.43
2023-05-31T09:52:06.016Z,51.49
2023-05-31T09:53:28.054Z,51.17
2023-05-31T09:54:51.512Z,50.59
2023-05-31T09:56:20.232Z,50.47
2023-05-31T09:57:44.892Z,51.85
2023-05-31T09:59:08.576Z,51.32
2023-05-31T10:00:31.492Z,51.76
2023-05-31T10:01:55.722Z,51.69
2023-05-31T10:03:18.992Z,50.96
2023-05-31T10:04:44.907Z,50.88
2023-05-31T10:06:09.618Z,50.50
2023-05-31T10:07:33.874Z,49.26
2023-05-31T10:08:56.778Z,49.19
2023-05-31T10:10:21.460Z,48.92
2023-05-31T10:11:49.162Z,47.74
2023-05-31T10:13:15.882Z,49.50
2023-05-31T10:14:46.961Z,46.46
2023-05-31T10:16:11.849Z,46.32
2023-05-31T10:17:40.349Z,46.52
2023-05-31T10:19:08.389Z,45.97
2023-05-31T10:20:37.101Z,45.49
2023-05-31T10:22:02.701Z,43.50
2023-05-31T10:23:28.331Z,42.99
2023-05-31T10:24:54.848Z,43.41
2023-05-31T10:26:19.445Z,43.65
2023-05-31T10:27:46.557Z,42.74
2023-05-31T10:29:16.356Z,42.32
2023-05-31T10:30:42.005Z,43.18
2023-05-31T10:32:12.334Z,46.00
2023-05-31T10:33:35.466Z,46.55
2023-05-31T10:34:58.639Z,44.57
2023-05-31T10:36:21.686Z,44.78
2023-05-31T10:37:48.225Z,43.74
2023-05-31T10:39:20.665Z,45.37
2023-05-31T10:40:49.112Z,44.11
2023-05-31T10:42:17.397Z,44.09
2023-05-31T10:43:44.560Z,43.17
2023-05-31T10:45:14.081Z,41.90
2023-05-31T10:46:40.379Z,42.15
2023-05-31T10:48:12.142Z,41.74
2023-05-31T10:49:37.637Z,40.81
2023-05-31T10:51:02.101Z,41.59
2023-05-31T10:52:25.770Z,40.90
2023-05-31T10:53:48.967Z,40.34
2023-05-31T10:55:20.653Z,40.46
2023-05-31T10:56:54.119Z,40.47
2023-05-31T10:58:28.782Z,41.04
2023-05-31T10:59:52.278Z,40.80
2023-05-31T11:01:17.193Z,40.36
2023-05-31T11:02:47.493Z,38.81
2023-05-31T11:04:21.567Z,38.91
2023-05-31T11:05:56.661Z,41.04
2023-05-31T11:07:23.407Z,41.45
2023-05-31T11:09:00.266Z,41.75
2023-05-31T11:10:28.704Z,42.15
2023-05-31T11:11:52.029Z,41.80
2023-05-31T11:13:14.900Z,41.27
2023-05-31T11:14:37.725Z,41.78
2023-05-31T11:16:00.583Z,39.86
2023-05-31T11:17:22.511Z,39.96
2023-05-31T11:18:45.344Z,39.84
2023-05-31T11:20:09.686Z,42.14
2023-05-31T11:21:48.382Z,40.50
2023-05-31T11:23:31.781Z,40.45
2023-05-31T11:24:55.994Z,40.56
2023-05-31T11:26:21.377Z,39.41
2023-05-31T11:27:49.194Z,38.38
2023-05-31T11:29:12.124Z,39.04
2023-05-31T11:30:37.664Z,38.73
2023-05-31T11:32:00.479Z,39.56
2023-05-31T11:33:24.122Z,40.82
2023-05-31T11:34:52.177Z,41.57
2023-05-31T11:36:16.607Z,43.12
2023-05-31T11:37:41.548Z,44.33
2023-05-31T11:39:04.443Z,43.07
2023-05-31T11:40:27.240Z,42.14
2023-05-31T11:41:51.448Z,41.59
2023-05-31T11:43:19.368Z,42.20
2023-05-31T11:44:44.479Z,41.09
2023-05-31T11:46:07.729Z,42.72
2023-05-31T11:47:35.924Z,42.74
2023-05-31T11:48:59.688Z,43.14
2023-05-31T11:50:21.737Z,42.62
2023-05-31T11:51:45.821Z,42.50
2023-05-31T11:53:08.813Z,41.85
2023-05-31T11:54:33.613Z,41.58
2023-05-31T11:55:59.493Z,40.38
2023-05-31T11:57:23.938Z,41.57
2023-05-31T11:58:49.781Z,44.04
2023-05-31T12:00:13.694Z,43.51
2023-05-31T12:01:41.142Z,43.47
2023-05-31T12:03:06.735Z,42.95
2023-05-31T12:04:31.832Z,44.45
2023-05-31T12:06:00.084Z,42.64
2023-05-31T12:07:22.946Z,41.80
2023-05-31T12:08:45.915Z,41.65
2023-05-31T12:10:10.052Z,41.16
2023-05-31T12:11:33.140Z,40.58
2023-05-31T12:13:02.836Z,40.60
2023-05-31T12:14:27.309Z,40.70
2023-05-31T12:15:57.031Z,40.97
2023-05-31T12:17:20.009Z,41.20
2023-05-31T12:18:42.987Z,41.22
2023-05-31T12:20:07.065Z,40.19
2023-05-31T12:21:29.902Z,40.64
2023-05-31T12:22:52.704Z,40.33
2023-05-31T12:24:17.739Z,40.27
2023-05-31T12:25:46.492Z,40.76
2023-05-31T12:27:10.165Z,39.50
2023-05-31T12:28:34.385Z,39.52
2023-05-31T12:29:57.521Z,40.45
2023-05-31T12:31:24.736Z,41.61
2023-05-31T12:32:48.207Z,41.55
2023-05-31T12:34:13.904Z,41.53
2023-05-31T12:35:41.911Z,41.00
2023-05-31T12:37:09.358Z,41.49
2023-05-31T12:38:32.686Z,41.96
2023-05-31T12:40:10.308Z,41.60
2023-05-31T12:41:33.854Z,40.50
2023-05-31T12:43:02.402Z,39.79
2023-05-31T12:44:28.057Z,40.22
2023-05-31T12:45:54.359Z,40.77
2023-05-31T12:47:18.507Z,42.28
2023-05-31T12:48:43.894Z,43.25
2023-05-31T12:50:09.184Z,42.63
2023-05-31T12:51:32.012Z,44.00
2023-05-31T12:52:57.777Z,43.45
2023-05-31T12:54:20.679Z,44.46
2023-05-31T12:55:43.763Z,43.87
2023-05-31T12:57:09.815Z,43.40
2023-05-31T12:58:33.389Z,42.12
2023-05-31T13:00:01.533Z,41.37
2023-05-31T13:01:25.388Z,40.25
2023-05-31T13:02:48.433Z,40.42
2023-05-31T13:04:12.342Z,39.93
2023-05-31T13:05:35.243Z,40.11
2023-05-31T13:06:59.158Z,40.12
2023-05-31T13:08:21.152Z,40.74
2023-05-31T13:09:44.007Z,40.44
2023-05-31T13:11:06.924Z,39.96
2023-05-31T13:12:29.801Z,40.55
2023-05-31T13:13:52.952Z,41.30
2023-05-31T13:15:17.479Z,42.77
2023-05-31T13:16:42.143Z,43.07
2023-05-31T13:18:05.090Z,43.72
2023-05-31T13:19:27.941Z,42.71
2023-05-31T13:20:50.846Z,43.14
2023-05-31T13:22:14.405Z,44.29
2023-05-31T13:23:37.314Z,43.46
2023-05-31T13:25:00.389Z,42.73
2023-05-31T13:26:28.104Z,44.06
2023-05-31T13:27:50.984Z,43.42
2023-05-31T13:29:13.819Z,42.70
2023-05-31T13:30:38.250Z,42.62
2023-05-31T13:32:01.517Z,42.16
2023-05-31T13:33:23.855Z,41.47
2023-05-31T13:34:46.686Z,41.30
2023-05-31T13:36:09.607Z,41.39
2023-05-31T13:37:33.958Z,41.26
2023-05-31T13:38:56.865Z,41.83
2023-05-31T13:40:19.842Z,42.09
2023-05-31T13:41:44.101Z,42.80
2023-05-31T13:43:06.915Z,42.34
2023-05-31T13:44:29.790Z,42.30
2023-05-31T13:45:54.433Z,41.75
2023-05-31T13:47:17.502Z,41.26
2023-05-31T13:48:40.373Z,42.35
2023-05-31T13:50:02.224Z,41.35
2023-05-31T13:51:25.042Z,41.99
2023-05-31T13:52:49.807Z,41.79
2023-05-31T13:54:12.906Z,41.35
2023-05-31T13:55:35.713Z,40.61
2023-05-31T13:57:00.426Z,40.52
2023-05-31T13:58:23.395Z,41.25
2023-05-31T13:59:46.177Z,40.87
2023-05-31T14:01:10.768Z,42.66
2023-05-31T14:02:33.802Z,42.92
2023-05-31T14:03:56.781Z,43.05
2023-05-31T14:05:19.848Z,42.33
2023-05-31T14:06:43.228Z,41.47
2023-05-31T14:08:07.415Z,41.13
2023-05-31T14:09:30.224Z,41.70
2023-05-31T14:10:53.055Z,41.04
2023-05-31T14:12:15.922Z,40.93
2023-05-31T14:13:38.853Z,41.99
2023-05-31T14:15:01.772Z,41.44
2023-05-31T14:16:26.055Z,41.24
2023-05-31T14:17:49.252Z,41.33
2023-05-31T14:19:12.098Z,40.72
2023-05-31T14:20:35.043Z,40.90
2023-05-31T14:21:58.024Z,40.30
2023-05-31T14:23:20.846Z,41.29
2023-05-31T14:24:43.877Z,41.61
2023-05-31T14:26:06.778Z,41.36
2023-05-31T14:27:29.639Z,41.20
2023-05-31T14:28:52.403Z,41.71
2023-05-31T14:30:15.444Z,41.27
2023-05-31T14:31:39.809Z,41.76
2023-05-31T14:33:04.179Z,41.72
2023-05-31T14:34:27.639Z,40.64
2023-05-31T14:35:50.855Z,40.76
2023-05-31T14:37:17.723Z,40.96
2023-05-31T14:38:44.040Z,40.93
2023-05-31T14:40:11.161Z,41.40
2023-05-31T14:41:34.221Z,40.61
2023-05-31T14:42:57.525Z,40.04
2023-05-31T14:44:20.437Z,40.67
2023-05-31T14:45:44.285Z,40.19
2023-05-31T14:47:09.340Z,40.41
2023-05-31T14:48:32.202Z,39.65
2023-05-31T14:49:54.073Z,40.26
2023-05-31T14:51:16.887Z,40.76
2023-05-31T14:52:39.709Z,40.39
2023-05-31T14:54:02.534Z,40.10
2023-05-31T14:55:25.478Z,40.40
2023-05-31T14:56:48.315Z,40.59
2023-05-31T14:58:11.974Z,40.81
2023-05-31T14:59:34.844Z,41.54
2023-05-31T15:00:57.881Z,40.44
2023-05-31T15:02:22.189Z,40.82
2023-05-31T15:03:45.652Z,41.87
2023-05-31T15:05:10.602Z,42.18
2023-05-31T15:06:33.475Z,42.50
2023-05-31T15:07:56.264Z,42.08
2023-05-31T15:09:19.594Z,42.65
2023-05-31T15:10:42.476Z,42.84
2023-05-31T15:12:06.401Z,43.19
2023-05-31T15:13:29.286Z,41.42
2023-05-31T15:14:51.221Z,41.68
2023-05-31T15:16:14.071Z,42.21
2023-05-31T15:17:38.376Z,41.75
2023-05-31T15:19:01.672Z,41.89
2023-05-31T15:20:24.676Z,41.56
2023-05-31T15:21:47.617Z,41.78
2023-05-31T15:23:10.513Z,43.08
2023-05-31T15:24:33.337Z,43.03
2023-05-31T15:25:56.383Z,43.12
2023-05-31T15:27:19.299Z,43.18
2023-05-31T15:28:42.179Z,42.61
2023-05-31T15:30:05.789Z,43.05
2023-05-31T15:31:29.050Z,42.97
2023-05-31T15:32:53.325Z,42.74
2023-05-31T15:34:16.559Z,42.40
2023-05-31T15:35:39.521Z,42.75
2023-05-31T15:37:02.375Z,42.36
2023-05-31T15:38:25.179Z,41.76
2023-05-31T15:39:48.020Z,42.35
2023-05-31T15:41:10.842Z,42.10
2023-05-31T15:42:33.714Z,42.37
2023-05-31T15:43:57.676Z,42.41
2023-05-31T15:45:20.575Z,41.20
2023-05-31T15:46:45.723Z,41.33
2023-05-31T15:48:10.072Z,41.84
2023-05-31T15:49:31.942Z,41.71
2023-05-31T15:50:55.719Z,41.96
2023-05-31T15:52:18.607Z,42.32
2023-05-31T15:53:41.885Z,42.27
2023-05-31T15:55:05.798Z,41.12
2023-05-31T15:56:28.696Z,41.81
2023-05-31T15:57:51.515Z,41.05
2023-05-31T15:59:15.385Z,42.11
2023-05-31T16:00:39.573Z,41.56
2023-05-31T16:02:02.437Z,42.01
2023-05-31T16:03:27.258Z,41.79
2023-05-31T16:04:50.263Z,41.62
2023-05-31T16:06:13.261Z,42.04
2023-05-31T16:07:36.154Z,42.26
2023-05-31T16:08:59.389Z,42.72
2023-05-31T16:10:22.511Z,42.75
2023-05-31T16:11:45.360Z,43.11
2023-05-31T16:13:09.398Z,43.44
2023-05-31T16:14:32.305Z,43.10
2023-05-31T16:15:55.125Z,43.34
2023-05-31T16:17:18.022Z,43.52
2023-05-31T16:18:42.242Z,42.73
2023-05-31T16:20:05.688Z,42.84
2023-05-31T16:21:28.531Z,42.89
2023-05-31T16:22:51.333Z,43.14
2023-05-31T16:24:15.333Z,42.78
2023-05-31T16:25:38.121Z,42.90
2023-05-31T16:27:01.044Z,42.98
2023-05-31T16:28:24.389Z,42.67
2023-05-31T16:29:47.299Z,42.88
2023-05-31T16:31:14.166Z,42.42
2023-05-31T16:32:38.017Z,42.52
2023-05-31T16:34:02.236Z,43.42
2023-05-31T16:35:25.156Z,42.70
2023-05-31T16:36:47.986Z,43.36
2023-05-31T16:38:10.933Z,42.57
2023-05-31T16:39:33.063Z,42.34
2023-05-31T16:40:56.027Z,42.56
2023-05-31T16:42:18.828Z,43.25
2023-05-31T16:43:42.168Z,42.84
2023-05-31T16:45:05.781Z,42.68
2023-05-31T16:46:27.648Z,42.81
2023-05-31T16:47:51.716Z,42.75
2023-05-31T16:49:14.990Z,42.99
2023-05-31T16:50:37.813Z,43.18
2023-05-31T16:52:00.761Z,42.14
2023-05-31T16:53:23.904Z,41.62
2023-05-31T16:54:46.762Z,42.18
2023-05-31T16:56:09.887Z,41.85
2023-05-31T16:57:32.739Z,42.41
2023-05-31T16:58:55.616Z,41.85
2023-05-31T17:00:19.572Z,42.78
2023-05-31T17:01:42.502Z,43.16
2023-05-31T17:03:05.613Z,43.10
2023-05-31T17:04:29.883Z,42.63
2023-05-31T17:05:54.027Z,43.33
2023-05-31T17:07:17.039Z,43.10
2023-05-31T17:08:40.353Z,43.49
2023-05-31T17:10:02.362Z,43.14
2023-05-31T17:11:26.566Z,42.66
2023-05-31T17:12:49.450Z,43.29
2023-05-31T17:14:11.479Z,43.75
2023-05-31T17:15:34.285Z,43.10
2023-05-31T17:16:57.193Z,43.19
2023-05-31T17:18:20.050Z,42.94
2023-05-31T17:19:44.213Z,42.88
2023-05-31T17:21:07.307Z,42.55
2023-05-31T17:22:30.149Z,43.21
2023-05-31T17:23:52.927Z,42.85
2023-05-31T17:25:16.023Z,42.91
2023-05-31T17:26:40.182Z,43.55
2023-05-31T17:28:03.046Z,43.48
2023-05-31T17:29:25.828Z,42.93
2023-05-31T17:30:48.720Z,43.21
2023-05-31T17:32:10.776Z,43.09
2023-05-31T17:33:33.626Z,43.79
2023-05-31T17:34:57.792Z,43.69
2023-05-31T17:36:20.638Z,43.43
2023-05-31T17:37:43.434Z,43.22
2023-05-31T17:39:06.611Z,43.64
2023-05-31T17:40:29.455Z,43.74
2023-05-31T17:41:52.274Z,43.66
2023-05-31T17:43:15.132Z,43.24
2023-05-31T17:44:38.202Z,44.29
2023-05-31T17:46:00.306Z,43.62
2023-05-31T17:47:23.349Z,43.45
2023-05-31T17:48:46.180Z,43.23
2023-05-31T17:50:12.469Z,43.41
2023-05-31T17:51:37.598Z,44.20
2023-05-31T17:53:00.644Z,44.44
2023-05-31T17:54:24.182Z,44.13
2023-05-31T17:55:47.488Z,43.62
2023-05-31T17:57:09.448Z,44.11
2023-05-31T17:58:32.234Z,44.24
2023-05-31T17:59:55.064Z,44.00
2023-05-31T18:01:18.047Z,44.87